Time;durP1;ratioP1;P1;durP2;ratioP2;P2;SDS_P1;SDS_P2;PMS_P1;PMS_P2;Temp;Humidity;BMP_temperature;BMP_pressure;BME280_temperature;BME280_humidity;BME280_pressure;Samples;Min_cycle;Max_cycle;Signal;HPM_P1;HPM_P2
2023/01/24 00:00:55;;;;;;;11.40;7.82;;;;;;;;;;5062264;28;20605;-85
2023/01/24 00:03:21;;;;;;;11.18;7.55;;;;;;;;;;5043964;28;20093;-85
2023/01/24 00:05:46;;;;;;;12.17;8.10;;;;;;;;;;5046108;28;20375;-85
2023/01/24 00:08:13;;;;;;;13.23;8.63;;;;;;;;;;5049865;28;20279;-85
2023/01/24 00:10:38;;;;;;;12.88;8.77;;;;;;;;;;5062146;28;20041;-85
2023/01/24 00:13:03;;;;;;;13.35;8.30;;;;;;;;;;5052168;28;20040;-85
2023/01/24 00:15:28;;;;;;;10.85;7.43;;;;;;;;;;5047376;28;20115;-85
2023/01/24 00:17:54;;;;;;;12.32;7.88;;;;;;;;;;5068092;28;20065;-85
2023/01/24 00:20:19;;;;;;;11.97;8.40;;;;;;;;;;5066222;28;20495;-85
2023/01/24 00:22:44;;;;;;;13.15;8.15;;;;;;;;;;5057026;28;20059;-85
2023/01/24 00:25:10;;;;;;;11.97;8.10;;;;;;;;;;5054836;28;20029;-85
2023/01/24 00:27:38;;;;;;;14.43;8.40;;;;;;;;;;5056201;28;20040;-85
2023/01/24 00:30:04;;;;;;;11.75;7.20;;;;;;;;;;5057681;28;20054;-86
2023/01/24 00:32:30;;;;;;;11.75;7.43;;;;;;;;;;5034603;28;20112;-86
2023/01/24 00:34:58;;;;;;;12.63;8.25;;;;;;;;;;5044014;28;20363;-85
2023/01/24 00:37:24;;;;;;;11.55;7.65;;;;;;;;;;5049415;28;20048;-86
2023/01/24 00:39:55;;;;;;;15.23;8.55;;;;;;;;;;5047483;28;20036;-85
2023/01/24 00:42:23;;;;;;;12.57;8.48;;;;;;;;;;5057767;28;20067;-86
2023/01/24 00:44:48;;;;;;;12.43;8.32;;;;;;;;;;5037566;28;20674;-85
2023/01/24 00:47:14;;;;;;;13.40;9.13;;;;;;;;;;5035095;28;20039;-86
2023/01/24 00:49:40;;;;;;;12.68;8.02;;;;;;;;;;5042084;28;20039;-88
2023/01/24 00:52:08;;;;;;;12.48;7.65;;;;;;;;;;5041467;28;20028;-87
2023/01/24 00:54:33;;;;;;;11.85;8.07;;;;;;;;;;5042962;28;20037;-88
2023/01/24 00:57:04;;;;;;;12.55;7.63;;;;;;;;;;5040379;28;20036;-88
2023/01/24 00:59:30;;;;;;;12.60;8.07;;;;;;;;;;5041922;28;20320;-87
2023/01/24 01:01:57;;;;;;;11.15;7.55;;;;;;;;;;5047582;28;20033;-87
2023/01/24 01:04:28;;;;;;;10.10;7.10;;;;;;;;;;5046544;28;20047;-88
2023/01/24 01:06:53;;;;;;;11.35;6.80;;;;;;;;;;5037456;28;20040;-87
2023/01/24 01:09:19;;;;;;;11.38;7.22;;;;;;;;;;5050016;28;20040;-88
2023/01/24 01:11:44;;;;;;;10.02;7.00;;;;;;;;;;5043425;28;20033;-88
2023/01/24 01:14:12;;;;;;;12.30;7.70;;;;;;;;;;5047726;28;20158;-88
2023/01/24 01:16:38;;;;;;;11.38;7.55;;;;;;;;;;5036661;28;20037;-88
2023/01/24 01:19:07;;;;;;;12.77;8.40;;;;;;;;;;5030437;28;20062;-88
2023/01/24 01:21:35;;;;;;;11.57;7.70;;;;;;;;;;5040209;28;20473;-89
2023/01/24 01:24:03;;;;;;;10.02;6.93;;;;;;;;;;5048319;28;20032;-89
2023/01/24 01:26:32;;;;;;;10.98;7.05;;;;;;;;;;5040494;28;20079;-89
2023/01/24 01:28:57;;;;;;;9.52;6.50;;;;;;;;;;5049325;28;20436;-89
2023/01/24 01:31:28;;;;;;;10.00;6.55;;;;;;;;;;5060205;28;20079;-89
2023/01/24 01:33:54;;;;;;;10.90;7.03;;;;;;;;;;5031867;28;20075;-89
2023/01/24 01:36:19;;;;;;;12.35;7.20;;;;;;;;;;5046508;28;20505;-89
2023/01/24 01:38:48;;;;;;;10.27;7.32;;;;;;;22.38;0.00;120368.88;5046627;28;20045;-89
2023/01/24 01:41:17;;;;;;;11.60;7.18;;;;;;;;;;5040146;28;20513;-89
2023/01/24 01:44:37;;;;;;;10.82;7.55;;;;;;;;;;5050265;28;20490;-89
2023/01/24 01:46:37;;;;;;;10.05;6.80;;;;;;;;;;5055482;28;20053;-89
2023/01/24 01:49:04;;;;;;;10.60;7.28;;;;;;;;;;5050384;28;20052;-89
2023/01/24 01:51:42;;;;;;;11.38;7.57;;;;;;;;;;5047016;28;20154;-90
2023/01/24 01:54:12;;;;;;;11.07;7.40;;;;;;;;;;5043718;28;20642;-89
2023/01/24 01:56:42;;;;;;;11.45;7.40;;;;;;;;;;5060555;28;20035;-89
2023/01/24 01:59:37;;;;;;;13.27;7.65;;;;;;;;;;5045715;28;20059;-89
2023/01/24 02:02:03;;;;;;;14.05;8.60;;;;;;;;;;5059745;28;20532;-90
2023/01/24 02:04:34;;;;;;;13.55;8.80;;;;;;;;;;5049991;28;20620;-88
2023/01/24 02:07:08;;;;;;;11.10;7.63;;;;;;;;;;5046496;28;20119;-88
2023/01/24 02:09:38;;;;;;;12.45;7.65;;;;;;;;;;5039351;28;20355;-89
2023/01/24 02:12:06;;;;;;;13.27;8.23;;;;;;;;;;5049580;28;20631;-90
2023/01/24 02:17:20;;;;;;;12.93;8.18;;;;;;;;;;5073612;28;20517;-89
2023/01/24 02:20:05;;;;;;;12.00;8.25;;;;;;;;;;5043497;28;20032;-89
2023/01/24 02:22:48;;;;;;;13.07;8.13;;;;;;;;;;5048290;28;20115;-89
2023/01/24 02:25:18;;;;;;;10.65;7.50;;;;;;;;;;5037343;28;20037;-89
2023/01/24 02:27:43;;;;;;;13.35;8.30;;;;;;;;;;5049390;28;20040;-89
2023/01/24 02:30:14;;;;;;;14.45;8.60;;;;;;;;;;5040978;28;20087;-88
2023/01/24 02:32:43;;;;;;;11.85;7.90;;;;;;;;;;5044767;28;20402;-89
2023/01/24 02:35:24;;;;;;;12.25;7.70;;;;;;;;;;5042016;28;20032;-89
2023/01/24 02:37:49;;;;;;;;;;;;;;;;;;5024706;28;20033;-89
2023/01/24 02:40:15;;;;;;;12.38;7.97;;;;;;;;;;5063914;28;19924;-89
2023/01/24 02:42:40;;;;;;;11.60;8.23;;;;;;;;;;5027801;28;20363;-89
2023/01/24 02:45:12;;;;;;;12.25;7.70;;;;;;;;;;5040984;28;20044;-88
2023/01/24 02:47:40;;;;;;;14.52;8.93;;;;;;;;;;5041998;28;20402;-89
2023/01/24 02:50:08;;;;;;;12.43;8.75;;;;;;;;;;5048686;28;20033;-88
2023/01/24 02:55:26;;;;;;;12.43;8.30;;;;;;;;;;5058796;28;20074;-88
2023/01/24 02:58:06;;;;;;;11.65;8.13;;;;;;;;;;5047074;28;20117;-88
2023/01/24 03:00:36;;;;;;;12.45;8.35;;;;;;;;;;5036425;28;20040;-89
2023/01/24 03:03:05;;;;;;;12.55;8.30;;;;;;;;;;5048839;28;20036;-89
2023/01/24 03:05:39;;;;;;;12.48;7.70;;;;;;;;;;5048928;28;20085;-88
2023/01/24 03:08:11;;;;;;;11.77;7.85;;;;;;;;;;5029284;28;20036;-89
2023/01/24 03:10:36;;;;;;;10.95;7.38;;;;;;;;;;5043813;28;20120;-89
2023/01/24 03:35:01;;;;;;;12.07;7.57;;;;;;;;;;5061387;28;20047;-89
2023/01/24 03:40:15;;;;;;;10.88;7.10;;;;;;;;;;5043205;28;20513;-89
2023/01/24 03:42:49;;;;;;;12.48;7.47;;;;;;;;;;5040757;28;20048;-90
2023/01/24 03:45:19;;;;;;;9.98;6.85;;;;;;;;;;5046314;28;20028;-89
2023/01/24 03:47:58;;;;;;;11.32;7.97;;;;;;;;;;5044162;28;20041;-89
2023/01/24 03:53:16;;;;;;;10.85;7.40;;;;;;;;;;5068021;28;20071;-89
2023/01/24 03:55:41;;;;;;;12.38;6.93;;;;;;;;;;5045108;28;20040;-89
2023/01/24 03:58:07;;;;;;;11.43;6.90;;;;;;;;;;5030418;28;20033;-91
2023/01/24 04:00:34;;;;;;;11.23;7.30;;;;;;;;;;5035916;28;20060;-89
2023/01/24 04:02:59;;;;;;;11.38;7.28;;;;;;;;;;5028748;28;20499;-90
2023/01/24 04:05:26;;;;;;;12.60;7.95;;;;;;;;;;5042649;28;20047;-90
2023/01/24 04:07:56;;;;;;;10.52;7.05;;;;;;;;;;5038664;28;20037;-90
2023/01/24 04:10:25;;;;;;;13.73;7.95;;;;;;;-145.28;0.00;159851.34;5019510;28;20882;-90
2023/01/24 04:12:50;;;;;;;10.45;7.18;;;;;;;;;;5028821;28;20037;-90
2023/01/24 04:15:20;;;;;;;11.25;7.15;;;;;;;;;;5061331;28;20051;-89
2023/01/24 04:17:50;;;;;;;11.27;7.22;;;;;;;;;;5042666;28;20044;-89
2023/01/24 04:20:21;;;;;;;11.25;7.32;;;;;;;;;;5017600;28;20106;-88
2023/01/24 04:22:51;;;;;;;11.63;7.30;;;;;;;;;;5056884;28;20558;-90
2023/01/24 04:25:19;;;;;;;12.13;7.20;;;;;;;;;;5049695;28;20048;-89
2023/01/24 04:27:49;;;;;;;11.60;7.22;;;;;;;;;;5024840;28;20295;-90
2023/01/24 04:30:17;;;;;;;10.23;6.50;;;;;;;;;;5041044;28;20053;-90
2023/01/24 04:35:29;;;;;;;10.30;6.60;;;;;;;;;;5056704;28;20037;-91
2023/01/24 04:38:00;;;;;;;11.25;7.18;;;;;;;;;;5049773;28;20100;-89
2023/01/24 04:40:26;;;;;;;10.85;7.25;;;;;;;;;;5059919;28;21550;-89
2023/01/24 04:42:51;;;;;;;10.77;7.20;;;;;;;;;;5038661;28;20037;-90
2023/01/24 04:45:27;;;;;;;10.68;6.68;;;;;;;;;;5051966;28;20043;-89
2023/01/24 04:47:53;;;;;;;9.70;6.75;;;;;;;;;;5038085;28;20037;-90
2023/01/24 04:50:19;;;;;;;11.02;7.00;;;;;;;;;;5043497;28;20040;-89
2023/01/24 04:52:44;;;;;;;10.07;6.72;;;;;;;;;;5047585;28;20037;-89
2023/01/24 04:55:10;;;;;;;10.65;7.00;;;;;;;;;;5049466;28;20041;-91
2023/01/24 04:57:35;;;;;;;10.52;6.97;;;;;;;;;;5047759;28;20032;-89
2023/01/24 05:00:00;;;;;;;11.20;7.03;;;;;;;;;;5040125;28;20037;-90
2023/01/24 05:02:28;;;;;;;10.70;6.72;;;;;;;;;;5034147;28;20037;-89
2023/01/24 05:04:53;;;;;;;11.27;7.65;;;;;;;;;;5039168;28;20090;-90
2023/01/24 05:07:22;;;;;;;10.88;6.63;;;;;;;;;;5040917;28;20040;-89
2023/01/24 05:09:47;;;;;;;9.70;6.80;;;;;;;;;;5040702;28;20124;-90
2023/01/24 05:12:13;;;;;;;10.68;6.50;;;;;;;;;;5035852;28;20123;-89
2023/01/24 05:14:40;;;;;;;11.73;7.50;;;;;;;;;;5041711;28;20047;-90
2023/01/24 05:17:08;;;;;;;12.90;8.23;;;;;;;;;;5033502;28;20043;-90
2023/01/24 05:19:34;;;;;;;12.27;7.75;;;;;;;;;;5036150;28;20047;-88
2023/01/24 05:21:59;;;;;;;12.15;7.38;;;;;;;;;;5059595;28;20045;-89
2023/01/24 05:24:25;;;;;;;10.30;6.50;;;;;;;;;;5033468;28;20099;-89
2023/01/24 05:26:50;;;;;;;9.60;6.30;;;;;;;;;;5044437;28;20048;-90
2023/01/24 05:29:16;;;;;;;12.30;6.82;;;;;;;;;;5038820;28;20040;-89
2023/01/24 05:31:44;;;;;;;12.35;7.57;;;;;;;;;;5035354;28;20044;-89
2023/01/24 05:34:09;;;;;;;12.23;7.15;;;;;;;;;;5033653;28;20040;-89
2023/01/24 05:36:35;;;;;;;11.55;7.07;;;;;;;;;;5045429;28;20036;-89
2023/01/24 05:39:00;;;;;;;11.90;7.85;;;;;;;;;;5057976;28;20076;-90
2023/01/24 05:41:26;;;;;;;12.77;7.75;;;;;;;;;;5045828;28;20514;-89
2023/01/24 05:44:00;;;;;;;8.68;6.10;;;;;;;;;;5050491;28;20045;-89
2023/01/24 05:46:28;;;;;;;13.25;8.50;;;;;;;;;;5049697;28;20114;-87
2023/01/24 05:48:55;;;;;;;12.77;8.15;;;;;;;;;;5053623;28;20037;-87
2023/01/24 05:51:21;;;;;;;11.27;6.50;;;;;;;;;;5039543;28;20036;-89
2023/01/24 05:53:47;;;;;;;10.73;6.82;;;;;;;;;;5046378;28;20035;-89
2023/01/24 05:56:13;;;;;;;13.45;8.25;;;;;;;;;;5048667;28;20040;-89
2023/01/24 05:58:39;;;;;;;12.40;7.85;;;;;;;;;;5043163;28;20048;-88
2023/01/24 06:01:09;;;;;;;12.57;7.75;;;;;;;;;;5049395;28;20090;-89
2023/01/24 06:03:41;;;;;;;13.27;8.00;;;;;;;;;;5036741;28;20072;-89
2023/01/24 06:06:07;;;;;;;11.85;7.97;;;;;;;;;;5046273;28;20088;-89
2023/01/24 06:08:37;;;;;;;13.82;8.45;;;;;;;22.38;0.00;120366.84;5049175;28;20119;-89
2023/01/24 06:11:13;;;;;;;14.65;8.98;;;;;;;;;;5048626;28;20045;-90
2023/01/24 06:13:44;;;;;;;10.77;6.70;;;;;;;;;;5069948;28;20070;-89
2023/01/24 06:16:11;;;;;;;;;;;;;;;;;;5051542;28;20064;-90
2023/01/24 06:18:37;;;;;;;12.30;7.82;;;;;;;;;;5052570;28;19927;-89
2023/01/24 06:21:13;;;;;;;12.48;7.40;;;;;;;;;;5052207;28;20029;-89
2023/01/24 06:23:38;;;;;;;14.20;8.77;;;;;;;;;;5041134;28;20067;-90
2023/01/24 06:26:04;;;;;;;12.45;8.30;;;;;;;-145.28;0.00;159927.88;5042945;28;20032;-89
2023/01/24 06:28:30;;;;;;;12.95;7.88;;;;;;;;;;5056147;28;20029;-88
2023/01/24 06:31:03;;;;;;;14.10;8.98;;;;;;;;;;5047228;28;20035;-89
2023/01/24 06:33:35;;;;;;;13.45;8.98;;;;;;;;;;5060779;28;20037;-89
2023/01/24 06:36:03;;;;;;;12.95;8.60;;;;;;;;;;5043972;28;20101;-89
2023/01/24 06:38:29;;;;;;;13.38;8.38;;;;;;;;;;5043279;28;20040;-89
2023/01/24 06:40:56;;;;;;;14.13;8.88;;;;;;;;;;5062125;28;20517;-89
2023/01/24 06:43:21;;;;;;;15.45;9.50;;;;;;;;;;5051320;28;20060;-89
2023/01/24 06:45:47;;;;;;;15.50;9.82;;;;;;;;;;5052913;28;20028;-87
2023/01/24 06:48:12;;;;;;;14.73;9.40;;;;;;;;;;5053357;28;20508;-88
2023/01/24 06:50:37;;;;;;;13.98;8.85;;;;;;;;;;5068004;28;20032;-89
2023/01/24 06:53:03;;;;;;;14.83;9.73;;;;;;;;;;5045169;28;20529;-88
2023/01/24 06:55:29;;;;;;;16.05;9.38;;;;;;;;;;5046090;28;20348;-88
2023/01/24 06:57:58;;;;;;;13.55;9.00;;;;;;;;;;5048031;28;20098;-89
2023/01/24 07:00:23;;;;;;;15.02;8.75;;;;;;;;;;5070823;28;20106;-89
2023/01/24 07:02:56;;;;;;;15.68;9.38;;;;;;;;;;5060035;28;20028;-87
2023/01/24 07:05:21;;;;;;;13.18;8.65;;;;;;;;;;5042545;28;20036;-88
2023/01/24 07:07:46;;;;;;;14.55;9.05;;;;;;;;;;5056461;28;20036;-89
2023/01/24 07:10:12;;;;;;;15.70;9.27;;;;;;;;;;5056317;28;20036;-88
2023/01/24 07:12:37;;;;;;;12.65;8.35;;;;;;;;;;5072468;28;20059;-88
2023/01/24 07:15:02;;;;;;;12.77;8.35;;;;;;;;;;5054942;28;20457;-89
2023/01/24 07:17:27;;;;;;;14.80;9.80;;;;;;;;;;5053726;28;20414;-88
2023/01/24 07:19:53;;;;;;;14.75;9.07;;;;;;;;;;5049295;28;20430;-89
2023/01/24 07:22:18;;;;;;;16.23;9.55;;;;;;;;;;5053052;28;20473;-90
2023/01/24 07:24:44;;;;;;;13.63;8.00;;;;;;;;;;5054758;28;20032;-88
2023/01/24 07:27:10;;;;;;;13.82;8.73;;;;;;;;;;5071693;28;20036;-88
2023/01/24 07:29:35;;;;;;;14.88;9.45;;;;;;;;;;5055413;28;20398;-89
2023/01/24 07:32:00;;;;;;;13.57;9.05;;;;;;;;;;5073191;28;20055;-88
2023/01/24 07:34:26;;;;;;;17.50;10.23;;;;;;;;;;5042672;28;20033;-88
2023/01/24 07:36:51;;;;;;;19.00;10.90;;;;;;;;;;5053625;28;20035;-91
2023/01/24 07:39:16;;;;;;;16.80;10.27;;;;;;;;;;5053141;28;20028;-89
2023/01/24 07:41:45;;;;;;;14.50;9.23;;;;;;;;;;5071093;28;20279;-90
2023/01/24 07:44:11;;;;;;;17.65;10.63;;;;;;;;;;5071255;28;20344;-87
2023/01/24 07:46:36;;;;;;;14.55;9.40;;;;;;;;;;5053855;28;20660;-87
2023/01/24 07:49:02;;;;;;;14.60;9.23;;;;;;;;;;5054865;28;20029;-86
2023/01/24 07:51:27;;;;;;;12.98;8.25;;;;;;;;;;5056502;28;20410;-87
2023/01/24 07:53:52;;;;;;;12.82;8.68;;;;;;;;;;5055191;28;20035;-88
2023/01/24 07:56:18;;;;;;;14.65;9.35;;;;;;;;;;5049650;28;20043;-88
2023/01/24 07:58:43;;;;;;;15.10;9.10;;;;;;;;;;5053207;28;20032;-89
2023/01/24 08:01:08;;;;;;;16.48;10.48;;;;;;;;;;5054756;28;20028;-88
2023/01/24 08:03:33;;;;;;;16.63;9.93;;;;;;;;;;5053765;28;20054;-87
2023/01/24 08:05:59;;;;;;;15.77;9.63;;;;;;;;;;5047870;28;20128;-88
2023/01/24 08:08:24;;;;;;;16.37;9.80;;;;;;;;;;5050533;28;20041;-88
2023/01/24 08:11:10;;;;;;;17.73;9.63;;;;;;;;;;5053006;28;20123;-88
2023/01/24 08:13:35;;;;;;;15.13;9.55;;;;;;;;;;5052900;28;20060;-89
2023/01/24 08:16:07;;;;;;;15.77;9.60;;;;;;;;;;5054306;28;20460;-88
2023/01/24 08:18:33;;;;;;;15.65;9.25;;;;;;;;;;5047374;28;20275;-89
2023/01/24 08:20:58;;;;;;;15.50;9.48;;;;;;;;;;5052279;28;20048;-88
2023/01/24 08:23:31;;;;;;;15.23;9.88;;;;;;;;;;5074432;28;20033;-88
2023/01/24 08:25:57;;;;;;;15.13;9.80;;;;;;;;;;5056027;28;20477;-87
2023/01/24 08:28:22;;;;;;;16.27;10.30;;;;;;;;;;5052564;28;20128;-85
2023/01/24 08:30:48;;;;;;;15.95;10.43;;;;;;;;;;5072346;28;20123;-86
2023/01/24 08:33:17;;;;;;;17.40;9.80;;;;;;;;;;5072729;28;20037;-85
2023/01/24 08:35:42;;;;;;;13.73;9.02;;;;;;;;;;5064293;28;20377;-86
2023/01/24 08:38:07;;;;;;;14.70;9.73;;;;;;;;;;5046580;28;20179;-84
2023/01/24 08:40:32;;;;;;;14.53;9.33;;;;;;;;;;5069310;28;20440;-86
2023/01/24 08:42:59;;;;;;;14.83;9.53;;;;;;;;;;5067662;28;20044;-84
2023/01/24 08:45:24;;;;;;;15.88;9.60;;;;;;;;;;5048974;28;20068;-87
2023/01/24 08:47:50;;;;;;;14.90;9.70;;;;;;;;;;5053841;28;20102;-86
2023/01/24 08:50:18;;;;;;;16.73;10.38;;;;;;;;;;5050903;28;20037;-88
2023/01/24 08:52:44;;;;;;;16.88;10.85;;;;;;;;;;5041341;28;20721;-85
2023/01/24 08:55:09;;;;;;;15.45;9.80;;;;;;;;;;5055784;28;20032;-87
2023/01/24 08:57:34;;;;;;;18.27;10.73;;;;;;;;;;5054795;28;20040;-88
2023/01/24 09:00:07;;;;;;;18.67;10.68;;;;;;;;;;5057682;28;20068;-86
2023/01/24 09:02:36;;;;;;;15.40;9.90;;;;;;;;;;5055512;28;20067;-86
2023/01/24 09:07:47;;;;;;;13.77;8.68;;;;;;;;;;5032449;28;20148;-89
2023/01/24 09:10:13;;;;;;;18.13;10.85;;;;;;;;;;5074499;28;20071;-88
2023/01/24 09:12:38;;;;;;;15.63;9.20;;;;;;;;;;5059496;28;20040;-89
2023/01/24 09:15:04;;;;;;;17.38;10.43;;;;;;;;;;5057731;28;20086;-88
2023/01/24 09:17:34;;;;;;;16.00;9.80;;;;;;;;;;5058423;28;20033;-88
2023/01/24 09:19:59;;;;;;;15.27;9.68;;;;;;;;;;5058716;28;20036;-89
2023/01/24 09:22:24;;;;;;;18.48;10.95;;;;;;;;;;5054371;28;20501;-88
2023/01/24 09:24:52;;;;;;;16.35;9.95;;;;;;;;;;5046705;28;20032;-90
2023/01/24 09:27:18;;;;;;;16.45;9.70;;;;;;;;;;5046432;28;20055;-89
2023/01/24 09:29:43;;;;;;;16.95;9.93;;;;;;;;;;5054296;28;20033;-88
2023/01/24 09:32:08;;;;;;;15.02;9.18;;;;;;;;;;5071201;28;20083;-90
2023/01/24 09:34:33;;;;;;;15.00;8.73;;;;;;;;;;5060241;28;20561;-88
2023/01/24 09:36:59;;;;;;;17.70;9.70;;;;;;;;;;5050752;28;20041;-87
2023/01/24 09:39:24;;;;;;;15.50;9.50;;;;;;;;;;5072457;28;20286;-88
2023/01/24 09:41:49;;;;;;;17.70;10.18;;;;;;;;;;5056863;28;20048;-88
2023/01/24 09:44:20;;;;;;;15.73;9.52;;;;;;;;;;5073527;28;20047;-89
2023/01/24 09:46:48;;;;;;;14.05;8.90;;;;;;;;;;5049299;28;20040;-88
2023/01/24 09:49:16;;;;;;;17.05;10.20;;;;;;;;;;5051241;28;20056;-90
2023/01/24 09:55:25;;;;;;;15.27;9.30;;;;;;;;;;5052566;28;20040;-90
2023/01/24 09:58:11;;;;;;;15.60;9.70;;;;;;;;;;5051712;28;20043;-90
2023/01/24 10:00:38;;;;;;;15.10;9.68;;;;;;;;;;5051989;28;20040;-91
2023/01/24 10:03:11;;;;;;;15.18;8.75;;;;;;;;;;5053055;28;20033;-90
2023/01/24 10:05:43;;;;;;;16.45;10.45;;;;;;;;;;5050932;28;20060;-89
2023/01/24 10:08:08;;;;;;;15.05;8.85;;;;;;;;;;5037955;28;20074;-90
2023/01/24 10:10:40;;;;;;;15.50;9.93;;;;;;;;;;5051711;28;20501;-91
2023/01/24 10:13:22;;;;;;;14.63;8.85;;;;;;;;;;5035589;28;20044;-89
2023/01/24 10:16:00;;;;;;;15.05;9.05;;;;;;;;;;5038305;28;20331;-91
2023/01/24 10:18:28;;;;;;;14.45;8.85;;;;;;;;;;5067594;28;20047;-90
2023/01/24 10:21:09;;;;;;;15.13;9.07;;;;;;;;;;5061962;28;20559;-92
2023/01/24 10:23:37;;;;;;;13.80;9.20;;;;;;;;;;5051581;28;20704;-91
2023/01/24 10:26:15;;;;;;;14.52;8.73;;;;;;;;;;5045508;28;20076;-90
2023/01/24 10:28:43;;;;;;;13.57;8.57;;;;;;;;;;5068414;28;20052;-88
2023/01/24 10:31:11;;;;;;;15.02;8.93;;;;;;;;;;5051195;28;20041;-87
2023/01/24 10:33:44;;;;;;;13.40;8.52;;;;;;;;;;5055157;28;20040;-90
2023/01/24 10:36:18;;;;;;;15.45;9.20;;;;;;;;;;5053241;28;20029;-90
2023/01/24 10:38:44;;;;;;;15.07;8.75;;;;;;;22.39;0.00;120354.03;5053844;28;20449;-89
2023/01/24 10:41:09;;;;;;;14.13;9.23;;;;;;;;;;5071493;28;20049;-89
2023/01/24 10:43:36;;;;;;;14.20;9.23;;;;;;;;;;5054093;28;20041;-89
2023/01/24 10:46:26;;;;;;;15.38;9.90;;;;;;;;;;5053543;28;20516;-92
2023/01/24 10:48:53;;;;;;;16.42;9.27;;;;;;;;;;5057943;28;20028;-92
2023/01/24 10:51:20;;;;;;;15.25;9.00;;;;;;;;;;5054599;28;20414;-92
2023/01/24 10:53:46;;;;;;;16.15;9.27;;;;;;;;;;5054157;28;20036;-91
2023/01/24 10:56:13;;;;;;;14.13;8.60;;;;;;;22.38;100.00;65951.03;5053395;28;20039;-91
2023/01/24 10:59:02;;;;;;;13.70;8.70;;;;;;;;;;5045180;28;20059;-89
2023/01/24 11:01:51;;;;;;;14.23;8.70;;;;;;;;;;5054592;28;20033;-90
2023/01/24 11:04:26;;;;;;;15.15;9.10;;;;;;;;;;5047241;28;20107;-87
2023/01/24 11:06:52;;;;;;;16.30;10.70;;;;;;;;;;5050906;28;20398;-90
2023/01/24 11:09:37;;;;;;;15.68;9.85;;;;;;;;;;5059774;28;20043;-86
2023/01/24 11:12:02;;;;;;;16.92;10.73;;;;;;;;;;5045672;28;20121;-90
2023/01/24 11:14:34;;;;;;;14.63;9.20;;;;;;;;;;5056643;28;20067;-89
2023/01/24 11:17:01;;;;;;;12.38;8.05;;;;;;;;;;5051732;28;20032;-90
2023/01/24 11:19:38;;;;;;;14.27;9.32;;;;;;;;;;5046020;28;20421;-90
2023/01/24 11:22:20;;;;;;;14.73;9.18;;;;;;;;;;5048671;28;20060;-89
2023/01/24 11:24:48;;;;;;;14.75;9.20;;;;;;;;;;5047894;28;20375;-91
2023/01/24 11:27:15;;;;;;;15.00;9.75;;;;;;;;;;5048039;28;20037;-90
2023/01/24 11:29:40;;;;;;;15.15;9.35;;;;;;;;;;5061563;28;20040;-90
2023/01/24 11:32:26;;;;;;;15.43;9.70;;;;;;;;;;5053367;28;20029;-88
2023/01/24 11:34:57;;;;;;;15.20;9.27;;;;;;;;;;5042370;28;20037;-90
2023/01/24 11:37:22;;;;;;;15.38;9.00;;;;;;;;;;5047223;28;20041;-90
2023/01/24 11:39:57;;;;;;;16.93;9.93;;;;;;;;;;5068538;28;20041;-89
2023/01/24 11:42:34;;;;;;;15.48;9.95;;;;;;;;;;5048974;28;20057;-89
2023/01/24 11:45:12;;;;;;;17.75;10.60;;;;;;;;;;5046131;28;20047;-90
2023/01/24 11:47:40;;;;;;;15.80;9.95;;;;;;;;;;5043421;28;20025;-90
2023/01/24 11:50:17;;;;;;;16.38;9.45;;;;;;;;;;5043890;28;20037;-90
2023/01/24 11:52:50;;;;;;;16.33;10.07;;;;;;;;;;5042362;28;20033;-89
2023/01/24 11:55:22;;;;;;;17.25;10.63;;;;;;;;;;5054107;28;20037;-89
2023/01/24 11:58:06;;;;;;;16.17;9.65;;;;;;;;;;5053473;28;20037;-86
2023/01/24 12:00:35;;;;;;;16.60;10.50;;;;;;;;;;5050463;28;20045;-88
2023/01/24 12:03:03;;;;;;;19.17;11.82;;;;;;;;;;5054500;28;20040;-89
2023/01/24 12:05:29;;;;;;;19.35;11.18;;;;;;;;;;5059224;28;20097;-87
2023/01/24 12:07:54;;;;;;;18.80;10.57;;;;;;;;;;5065132;28;20059;-88
2023/01/24 12:10:42;;;;;;;26.02;14.23;;;;;;;;;;5054311;28;20545;-89
2023/01/24 12:13:16;;;;;;;25.83;14.30;;;;;;;;;;5056840;28;20079;-89
2023/01/24 12:16:08;;;;;;;23.05;13.77;;;;;;;;;;5056304;28;20029;-89
2023/01/24 12:18:43;;;;;;;24.85;15.57;;;;;;;;;;5054688;28;20066;-86
2023/01/24 12:21:09;;;;;;;19.58;11.80;;;;;;;;;;5060508;28;20039;-88
2023/01/24 12:23:41;;;;;;;19.27;12.25;;;;;;;;;;5044572;28;20075;-88
2023/01/24 12:26:26;;;;;;;20.50;13.02;;;;;;;;;;5070876;28;20041;-88
2023/01/24 12:29:03;;;;;;;16.98;10.80;;;;;;;;;;5051846;28;20575;-89
2023/01/24 12:31:35;;;;;;;16.02;9.73;;;;;;;;;;5040503;28;20122;-88
2023/01/24 12:34:26;;;;;;;14.68;9.73;;;;;;;;;;5049389;28;20071;-89
2023/01/24 12:36:56;;;;;;;18.15;10.63;;;;;;;;;;5035043;28;20395;-88
2023/01/24 12:39:24;;;;;;;15.90;9.43;;;;;;;;;;5035982;28;20095;-88
2023/01/24 12:41:58;;;;;;;14.52;8.73;;;;;;;;;;5037072;28;20033;-88
2023/01/24 12:44:26;;;;;;;14.65;9.40;;;;;;;;;;5071891;28;20063;-88
2023/01/24 12:47:11;;;;;;;16.10;9.52;;;;;;;;;;5077361;28;20036;-88
2023/01/24 12:50:05;;;;;;;15.93;11.45;;;;;;;;;;5048934;28;20120;-87
2023/01/24 12:52:52;;;;;;;16.08;10.02;;;;;;;;;;5026570;28;20056;-89
2023/01/24 12:55:24;;;;;;;15.27;9.57;;;;;;;;;;5041365;28;20025;-88
2023/01/24 12:58:08;;;;;;;14.27;8.23;;;;;;;;;;5036780;28;20041;-89
2023/01/24 13:00:43;;;;;;;12.30;7.50;;;;;;;;;;5051066;28;20041;-88
2023/01/24 13:03:33;;;;;;;16.17;8.02;;;;;;;;;;5065569;28;20092;-89
2023/01/24 13:12:15;;;;;;;12.40;7.85;;;;;;;;;;5062682;28;20118;-90
2023/01/24 13:15:01;;;;;;;13.98;9.43;;;;;;;;;;5042588;28;20497;-90
2023/01/24 13:17:26;;;;;;;13.50;7.97;;;;;;;;;;5051193;28;20501;-88
2023/01/24 13:20:10;;;;;;;12.40;8.03;;;;;;;;;;5047374;28;20044;-87
2023/01/24 13:23:00;;;;;;;12.95;7.95;;;;;;;;;;5058190;28;20639;-87
2023/01/24 13:25:37;;;;;;;19.83;12.20;;;;;;;;;;5042061;28;20063;-86
2023/01/24 13:28:15;;;;;;;15.35;9.57;;;;;;;;;;5051286;28;20031;-86
2023/01/24 13:30:47;;;;;;;15.02;9.60;;;;;;;;;;5059782;28;20636;-87
2023/01/24 13:33:16;;;;;;;14.65;8.73;;;;;;;;;;5049858;28;20025;-87
2023/01/24 13:35:51;;;;;;;14.57;9.73;;;;;;;;;;5059089;28;20040;-86
2023/01/24 13:38:21;;;;;;;12.23;8.40;;;;;;;;;;5055852;28;20040;-85
2023/01/24 13:41:05;;;;;;;12.70;8.48;;;;;;;;;;5074379;28;20128;-87
2023/01/24 13:43:39;;;;;;;11.75;7.47;;;;;;;;;;5065621;28;20113;-88
2023/01/24 13:46:04;;;;;;;11.23;7.30;;;;;;;;;;5047787;28;20036;-88
2023/01/24 13:48:38;;;;;;;11.77;7.93;;;;;;;;;;5042581;28;20072;-87
2023/01/24 13:51:19;;;;;;;11.25;7.63;;;;;;;;;;5045405;28;20041;-88
2023/01/24 13:54:05;;;;;;;11.13;7.47;;;;;;;;;;5043271;28;20036;-88
2023/01/24 13:56:31;;;;;;;13.27;7.45;;;;;;;;;;5037306;28;20040;-87
2023/01/24 13:58:56;;;;;;;11.60;7.03;;;;;;;;;;5035482;28;20072;-87
2023/01/24 14:01:22;;;;;;;11.20;7.15;;;;;;;;;;5045151;28;20294;-87
2023/01/24 14:04:06;;;;;;;11.02;7.13;;;;;;;;;;5062008;28;20041;-87
2023/01/24 14:06:42;;;;;;;11.20;7.25;;;;;;;;;;5066923;28;20052;-87
2023/01/24 14:09:37;;;;;;;12.57;8.18;;;;;;;;;;5045876;28;20067;-86
2023/01/24 14:12:04;;;;;;;12.63;8.10;;;;;;;;;;5054383;28;20041;-90
2023/01/24 14:14:36;;;;;;;11.48;7.35;;;;;;;;;;5056123;28;20029;-88
2023/01/24 14:17:03;;;;;;;11.68;7.55;;;;;;;;;;5075863;28;20096;-88
2023/01/24 14:19:53;;;;;;;15.10;8.27;;;;;;;;;;5067214;28;20041;-90
2023/01/24 14:22:21;;;;;;;11.20;7.37;;;;;;;;;;5042853;28;20032;-89
2023/01/24 14:24:54;;;;;;;11.65;7.35;;;;;;;;;;5055305;28;20047;-85
2023/01/24 14:27:32;;;;;;;12.80;7.13;;;;;;;;;;5049297;28;20056;-87
2023/01/24 14:30:02;;;;;;;12.75;8.07;;;;;;;;;;5046981;28;20144;-88
2023/01/24 14:32:34;;;;;;;13.00;7.72;;;;;;;;;;5044413;28;20044;-87
2023/01/24 14:35:13;;;;;;;13.20;8.30;;;;;;;;;;5070941;28;20029;-87
2023/01/24 14:37:38;;;;;;;14.68;8.57;;;;;;;;;;5046063;28;20032;-87
2023/01/24 14:40:15;;;;;;;12.87;8.43;;;;;;;;;;5052157;28;20175;-87
2023/01/24 14:42:41;;;;;;;11.20;7.90;;;;;;;;;;5052105;28;20063;-89
2023/01/24 14:45:12;;;;;;;12.33;7.30;;;;;;;;;;5041275;28;20498;-88
2023/01/24 14:47:37;;;;;;;;;;;;;;;;;;5041534;28;20847;-88
2023/01/24 14:50:04;;;;;;;16.63;8.95;;;;;;;;;;5053536;28;19916;-88
2023/01/24 14:52:34;;;;;;;16.77;8.77;;;;;;;;;;5050068;28;20406;-88
2023/01/24 14:55:01;;;;;;;15.07;9.52;;;;;;;;;;5050575;28;20139;-87
2023/01/24 14:57:26;;;;;;;15.85;9.45;;;;;;;;;;5048806;28;20115;-87
2023/01/24 15:00:18;;;;;;;13.98;8.85;;;;;;;;;;5059122;28;20060;-86
2023/01/24 15:02:53;;;;;;;15.70;9.07;;;;;;;;;;5043914;28;20033;-87
2023/01/24 15:05:27;;;;;;;16.52;10.15;;;;;;;;;;5048659;28;20037;-86
2023/01/24 15:07:52;;;;;;;23.25;14.48;;;;;;;;;;5049612;28;20051;-83
2023/01/24 15:10:24;;;;;;;17.38;12.00;;;;;;;;;;5036977;28;20037;-87
2023/01/24 15:12:59;;;;;;;17.73;11.43;;;;;;;;;;5044800;28;20040;-85
2023/01/24 15:15:25;;;;;;;16.55;10.52;;;;;;;;;;5061763;28;20036;-86
2023/01/24 15:17:53;;;;;;;18.27;11.63;;;;;;;;;;5055907;28;20048;-85
2023/01/24 15:20:20;;;;;;;17.17;10.30;;;;;;;;;;5042872;28;20041;-84
2023/01/24 15:22:55;;;;;;;16.17;9.88;;;;;;;;;;5069248;28;20028;-85
2023/01/24 15:25:22;;;;;;;19.35;11.38;;;;;;;;;;5053699;28;20525;-85
2023/01/24 15:27:47;;;;;;;16.48;10.35;;;;;;;;;;5058643;28;20098;-84
2023/01/24 15:30:18;;;;;;;17.30;10.38;;;;;;;;;;5056532;28;20033;-88